Time;durP1;ratioP1;P1;durP2;ratioP2;P2;SDS_P1;SDS_P2;PMS_P1;PMS_P2;Temp;Humidity;BMP_temperature;BMP_pressure;BME280_temperature;BME280_humidity;BME280_pressure;Samples;Min_cycle;Max_cycle;Signal;HPM_P1;HPM_P2
2021/10/11 00:02:02;;;;;;;22.43;11.43;;;;;;;;;;4922349;29;20463;-76
2021/10/11 00:04:29;;;;;;;24.33;10.63;;;;;;;;;;4934418;29;20238;-75
2021/10/11 00:06:56;;;;;;;22.27;11.17;;;;;;;;;;4931002;29;20557;-76
2021/10/11 00:09:23;;;;;;;24.33;10.50;;;;;;;;;;4918098;29;20611;-74
2021/10/11 00:11:50;;;;;;;23.70;10.33;;;;;;;;;;4934265;29;20838;-76
2021/10/11 00:14:17;;;;;;;26.03;11.20;;;;;;;;;;4926627;29;20506;-76
2021/10/11 00:16:45;;;;;;;21.43;9.83;;;;;;;;;;4916835;29;20208;-76
2021/10/11 00:19:13;;;;;;;23.57;10.53;;;;;;;;;;4916484;29;21155;-76
2021/10/11 00:21:41;;;;;;;22.20;10.40;;;;;;;;;;4920260;29;20655;-77
2021/10/11 00:24:08;;;;;;;20.30;9.70;;;;;;;;;;4923909;29;20558;-75
2021/10/11 00:26:35;;;;;;;23.77;11.23;;;;;;;;;;4915964;29;20555;-77
2021/10/11 00:29:02;;;;;;;21.43;10.97;;;;;;;;;;4923940;29;20578;-74
2021/10/11 00:31:30;;;;;;;21.73;10.50;;;;;;;;;;4924878;29;20545;-76
2021/10/11 00:33:57;;;;;;;23.43;10.83;;;;;;;;;;4916339;29;20505;-76
2021/10/11 00:36:26;;;;;;;20.93;10.27;;;;;;;;;;4912233;29;20481;-75
2021/10/11 00:38:53;;;;;;;21.20;10.67;;;;;;;;;;4917495;29;20217;-76
2021/10/11 00:41:20;;;;;;;21.97;10.53;;;;;;;;;;4931060;29;20278;-76
2021/10/11 00:43:48;;;;;;;23.70;11.07;;;;;;;;;;4922635;29;20310;-75
2021/10/11 00:46:15;;;;;;;23.93;10.63;;;;;;;;;;4924749;29;20546;-78
2021/10/11 00:48:42;;;;;;;23.47;10.90;;;;;;;;;;4935869;29;20905;-77
2021/10/11 00:51:09;;;;;;;22.10;10.40;;;;;;;;;;4937654;29;20230;-76
2021/10/11 00:53:38;;;;;;;21.90;9.83;;;;;;;;;;4936909;29;20329;-77
2021/10/11 00:56:05;;;;;;;21.40;10.07;;;;;;;;;;4936310;29;20245;-78
2021/10/11 00:58:32;;;;;;;20.57;9.77;;;;;;;;;;4932151;29;20587;-77
2021/10/11 01:01:00;;;;;;;24.37;10.50;;;;;;;;;;4936638;29;20495;-76
2021/10/11 01:03:27;;;;;;;22.30;10.17;;;;;;;;;;4936261;29;20215;-77
2021/10/11 01:05:54;;;;;;;22.00;10.40;;;;;;;;;;4937170;29;20238;-77
2021/10/11 01:08:21;;;;;;;19.17;10.33;;;;;;;;;;4936717;29;20518;-77
2021/10/11 01:10:50;;;;;;;20.73;10.40;;;;;;;;;;4938391;28;20531;-77
2021/10/11 01:13:18;;;;;;;20.53;10.50;;;;;;;;;;4929198;29;20261;-76
2021/10/11 01:15:45;;;;;;;19.90;10.23;;;;;;;;;;4929199;29;20254;-77
2021/10/11 01:18:12;;;;;;;20.20;9.90;;;;;;;;;;4935186;29;20206;-77
2021/10/11 01:20:41;;;;;;;21.07;9.57;;;;;;;;;;4945845;29;20227;-77
2021/10/11 01:23:08;;;;;;;22.53;10.00;;;;;;;;;;4940209;29;20486;-77
2021/10/11 01:25:35;;;;;;;25.50;10.23;;;;;;;;;;4935506;29;20250;-76
2021/10/11 01:28:03;;;;;;;23.83;9.93;;;;;;;;;;4929748;29;20234;-76
2021/10/11 01:30:31;;;;;;;22.43;9.40;;;;;;;;;;4929938;29;21023;-76
2021/10/11 01:32:58;;;;;;;23.57;10.20;;;;;;;;;;4929214;29;21148;-76
2021/10/11 01:35:25;;;;;;;25.50;11.00;;;;;;;;;;4927278;29;20302;-76
2021/10/11 01:37:54;;;;;;;20.27;10.20;;;;;;;;;;4929181;29;20549;-75
2021/10/11 01:40:21;;;;;;;23.73;11.40;;;;;;;;;;4928531;29;20711;-77
2021/10/11 01:42:49;;;;;;;23.87;11.73;;;;;;;;;;4929354;29;20234;-76
2021/10/11 01:45:16;;;;;;;24.37;11.07;;;;;;;;;;4930425;29;20247;-76
2021/10/11 01:47:44;;;;;;;25.63;11.20;;;;;;;;;;4928591;29;20237;-76
2021/10/11 01:50:11;;;;;;;23.43;10.80;;;;;;;;;;4930975;29;20310;-75
2021/10/11 01:52:40;;;;;;;23.40;10.40;;;;;;;;;;4927605;29;20254;-76
2021/10/11 01:55:09;;;;;;;21.70;10.67;;;;;;;;;;4930025;29;20263;-76
2021/10/11 01:57:37;;;;;;;21.97;11.07;;;;;;;;;;4926420;29;20305;-76
2021/10/11 02:00:05;;;;;;;24.80;11.37;;;;;;;;;;4928192;29;20800;-76
2021/10/11 02:02:32;;;;;;;25.27;10.17;;;;;;;;;;4924843;29;20207;-76
2021/10/11 02:05:00;;;;;;;23.27;10.80;;;;;;;;;;4928059;29;20294;-76
2021/10/11 02:07:27;;;;;;;23.43;10.40;;;;;;;;;;4931664;29;20219;-77
2021/10/11 02:09:54;;;;;;;22.97;11.20;;;;;;;;;;4915270;29;20242;-76
2021/10/11 02:12:23;;;;;;;22.80;11.17;;;;;;;;;;4914460;29;20298;-76
2021/10/11 02:14:50;;;;;;;22.67;11.00;;;;;;;;;;4917680;29;20307;-75
2021/10/11 02:17:17;;;;;;;23.90;11.07;;;;;;;;;;4916981;29;20642;-75
2021/10/11 02:19:45;;;;;;;21.53;10.87;;;;;;;;;;4916926;29;20224;-76
2021/10/11 02:22:12;;;;;;;21.37;10.23;;;;;;;;;;4925499;29;20246;-76
2021/10/11 02:24:39;;;;;;;25.10;11.00;;;;;;;;;;4931924;29;20768;-76
2021/10/11 02:27:06;;;;;;;23.10;10.13;;;;;;;;;;4932469;29;20267;-76
2021/10/11 02:29:35;;;;;;;20.50;10.47;;;;;;;;;;4926973;28;20710;-76
2021/10/11 02:32:02;;;;;;;21.57;10.33;;;;;;;;;;4926578;29;20305;-75
2021/10/11 02:34:29;;;;;;;24.80;10.40;;;;;;;;;;4933513;29;20317;-76
2021/10/11 02:36:57;;;;;;;20.17;10.10;;;;;;;;;;4932875;29;20264;-75
2021/10/11 02:39:24;;;;;;;20.80;9.63;;;;;;;;;;4932927;29;20242;-76
2021/10/11 02:41:51;;;;;;;22.30;9.83;;;;;;;;;;4932001;29;20210;-76
2021/10/11 02:44:18;;;;;;;25.23;10.20;;;;;;;;;;4933165;29;20869;-76
2021/10/11 02:46:47;;;;;;;18.03;9.67;;;;;;;;;;4932404;29;20238;-76
2021/10/11 02:49:14;;;;;;;22.40;10.73;;;;;;;;;;4931933;29;20310;-76
2021/10/11 02:51:41;;;;;;;22.70;10.23;;;;;;;;;;4930123;29;20309;-76
2021/10/11 02:54:08;;;;;;;24.60;10.60;;;;;;;;;;4928303;29;20737;-76
2021/10/11 02:56:35;;;;;;;23.20;10.57;;;;;;;;;;4932988;29;20306;-77
2021/10/11 02:59:03;;;;;;;20.70;9.17;;;;;;;;;;4933159;29;20914;-77
2021/10/11 03:01:30;;;;;;;24.70;10.47;;;;;;;;;;4933472;29;20238;-77
2021/10/11 03:03:58;;;;;;;20.53;10.43;;;;;;;;;;4931392;29;20293;-77
2021/10/11 03:06:26;;;;;;;28.67;12.37;;;;;;;;;;4932355;29;21151;-77
2021/10/11 03:08:53;;;;;;;18.40;9.43;;;;;;;;;;4931362;29;20414;-77
2021/10/11 03:11:20;;;;;;;22.53;9.67;;;;;;;;;;4921875;29;20310;-77
2021/10/11 03:13:47;;;;;;;19.80;10.17;;;;;;;;;;4927206;29;20310;-77
2021/10/11 03:16:14;;;;;;;21.00;9.80;;;;;;;;;;4930819;29;20202;-77
2021/10/11 03:18:42;;;;;;;20.80;9.73;;;;;;;;;;4930149;29;20266;-76
2021/10/11 03:21:10;;;;;;;21.93;10.33;;;;;;;;;;4931012;29;20863;-76
2021/10/11 03:23:37;;;;;;;27.50;10.53;;;;;;;;;;4932824;29;20246;-77
2021/10/11 03:26:05;;;;;;;20.77;9.83;;;;;;;;;;4932145;29;20741;-76
2021/10/11 03:28:32;;;;;;;22.03;10.40;;;;;;;;;;4932728;29;20302;-77
2021/10/11 03:30:59;;;;;;;21.47;10.07;;;;;;;;;;4932246;29;20266;-77
2021/10/11 03:33:27;;;;;;;24.33;10.53;;;;;;;;;;4933657;29;20318;-78
2021/10/11 03:35:54;;;;;;;21.03;10.77;;;;;;;;;;4932609;29;20230;-77
2021/10/11 03:38:23;;;;;;;18.70;10.37;;;;;;;;;;4933229;29;20275;-76
2021/10/11 03:40:50;;;;;;;19.33;10.57;;;;;;;;;;4933304;29;20266;-76
2021/10/11 03:43:17;;;;;;;22.23;10.60;;;;;;;;;;4923358;29;20242;-77
2021/10/11 03:45:44;;;;;;;19.87;10.93;;;;;;;;;;4932833;29;20729;-77
2021/10/11 03:48:12;;;;;;;23.73;10.53;;;;;;;;;;4934532;29;20623;-77
2021/10/11 03:50:39;;;;;;;26.17;10.37;;;;;;;;;;4927363;29;20319;-78
2021/10/11 03:53:06;;;;;;;24.37;11.13;;;;;;;;;;4929480;29;20270;-77
2021/10/11 03:55:35;;;;;;;23.07;10.93;;;;;;;;;;4932005;29;20238;-77
2021/10/11 03:58:02;;;;;;;26.17;10.80;;;;;;;;;;4932033;29;20274;-77
2021/10/11 04:00:29;;;;;;;22.83;11.27;;;;;;;;;;4917760;29;20777;-77
2021/10/11 04:02:57;;;;;;;26.40;11.10;;;;;;;;;;4924104;29;20298;-76
2021/10/11 04:05:24;;;;;;;20.07;10.10;;;;;;;;;;4922196;29;20736;-76
2021/10/11 04:07:54;;;;;;;21.20;10.63;;;;;;;;;;4919537;29;20625;-77
2021/10/11 04:10:26;;;;;;;23.40;11.27;;;;;;;;;;4922878;29;20241;-76
2021/10/11 04:13:01;;;;;;;23.07;11.03;;;;;;;;;;4928087;29;20211;-77
2021/10/11 04:15:28;;;;;;;23.80;10.93;;;;;;;;;;4928577;29;20234;-77
2021/10/11 04:17:56;;;;;;;22.70;10.47;;;;;;;;;;4921619;29;20210;-76
2021/10/11 04:20:23;;;;;;;26.53;10.87;;;;;;;;;;4919225;29;20643;-76
2021/10/11 04:22:51;;;;;;;21.13;11.10;;;;;;;;;;4919183;29;20805;-76
2021/10/11 04:25:18;;;;;;;21.13;10.80;;;;;;;;;;4921000;29;20773;-76
2021/10/11 04:27:45;;;;;;;23.70;10.43;;;;;;;;;;4918624;29;20319;-76
2021/10/11 04:30:14;;;;;;;22.50;10.50;;;;;;;;;;4918578;29;20241;-76
2021/10/11 04:32:41;;;;;;;23.13;11.13;;;;;;;;;;4919593;29;20326;-78
2021/10/11 04:35:08;;;;;;;20.20;10.83;;;;;;;;;;4920638;29;20318;-77
2021/10/11 04:37:36;;;;;;;22.30;10.93;;;;;;;;;;4921899;29;20219;-75
2021/10/11 04:40:03;;;;;;;23.03;10.63;;;;;;;;;;4925786;29;20308;-76
2021/10/11 04:42:30;;;;;;;23.10;10.77;;;;;;;;;;4929961;29;20294;-76
2021/10/11 04:44:57;;;;;;;23.17;11.37;;;;;;;;;;4930925;29;20205;-76
2021/10/11 04:47:26;;;;;;;24.27;11.03;;;;;;;;;;4931238;29;20218;-76
2021/10/11 04:49:53;;;;;;;20.00;10.33;;;;;;;;;;4929574;29;20313;-77
2021/10/11 04:52:20;;;;;;;27.97;11.67;;;;;;;;;;4929088;29;20677;-76
2021/10/11 04:54:48;;;;;;;22.20;10.57;;;;;;;;;;4929773;29;20330;-76
2021/10/11 04:57:15;;;;;;;18.00;10.20;;;;;;;;;;4927580;29;20206;-77
2021/10/11 04:59:42;;;;;;;24.17;10.83;;;;;;;;;;4927379;28;20338;-77
2021/10/11 05:02:09;;;;;;;19.90;10.67;;;;;;;;;;4925923;29;20246;-77
2021/10/11 05:04:38;;;;;;;24.83;10.93;;;;;;;;;;4925913;29;20690;-77
2021/10/11 05:07:05;;;;;;;23.57;10.80;;;;;;;;;;4928929;29;20234;-77
2021/10/11 05:09:32;;;;;;;18.50;9.67;;;;;;;;;;4926903;29;20305;-77
2021/10/11 05:11:59;;;;;;;24.33;11.50;;;;;;;;;;4927083;29;20298;-76
2021/10/11 05:14:27;;;;;;;23.70;11.23;;;;;;;;;;4928837;29;20313;-77
2021/10/11 05:16:55;;;;;;;25.30;12.50;;;;;;;;;;4929377;29;20648;-77
2021/10/11 05:19:25;;;;;;;25.10;10.80;;;;;;;;;;4925861;29;20216;-77
2021/10/11 05:21:54;;;;;;;24.93;10.87;;;;;;;;;;4920058;29;20211;-80
2021/10/11 05:24:23;;;;;;;20.97;10.40;;;;;;;;;;4910895;29;20338;-77
2021/10/11 05:26:51;;;;;;;21.17;11.57;;;;;;;;;;4914208;29;20214;-78
2021/10/11 05:29:18;;;;;;;19.63;11.13;;;;;;;;;;4918037;29;20219;-78
2021/10/11 05:31:46;;;;;;;22.83;11.03;;;;;;;;;;4914715;29;20230;-78
2021/10/11 05:34:13;;;;;;;21.10;10.90;;;;;;;;;;4913718;29;20706;-77
2021/10/11 05:36:40;;;;;;;25.20;10.83;;;;;;;;;;4918862;29;20218;-77
2021/10/11 05:39:09;;;;;;;21.30;9.77;;;;;;;;;;4907745;29;20757;-77
2021/10/11 05:41:36;;;;;;;23.47;10.63;;;;;;;;;;4905131;29;20254;-77
2021/10/11 05:44:03;;;;;;;22.30;11.17;;;;;;;;;;4912553;29;20203;-77
2021/10/11 05:46:30;;;;;;;21.57;11.40;;;;;;;;;;4910676;29;20225;-77
2021/10/11 05:48:58;;;;;;;22.97;10.73;;;;;;;;;;4912891;29;20227;-77
2021/10/11 05:51:25;;;;;;;22.80;10.83;;;;;;;;;;4922528;29;20229;-77
2021/10/11 05:53:52;;;;;;;23.97;11.50;;;;;;;;;;4929422;29;20278;-77
2021/10/11 05:56:21;;;;;;;29.23;13.67;;;;;;;;;;4921199;29;20638;-77
2021/10/11 05:58:48;;;;;;;34.93;14.90;;;;;;;;;;4933251;29;20238;-77
2021/10/11 06:01:15;;;;;;;27.77;13.13;;;;;;;;;;4931447;29;20279;-78
2021/10/11 06:03:42;;;;;;;28.47;13.40;;;;;;;;;;4932577;29;20294;-77
2021/10/11 06:06:09;;;;;;;27.33;13.97;;;;;;;;;;4930329;29;20293;-76
2021/10/11 06:08:37;;;;;;;31.20;13.30;;;;;;;;;;4933647;29;20299;-77
2021/10/11 06:11:04;;;;;;;30.87;12.40;;;;;;;;;;4931849;29;20258;-77
2021/10/11 06:13:32;;;;;;;21.93;11.67;;;;;;;;;;4930523;29;20648;-77
2021/10/11 06:16:00;;;;;;;22.83;10.57;;;;;;;;;;4932306;29;20266;-76
2021/10/11 06:18:28;;;;;;;24.37;11.20;;;;;;;;;;4925111;29;20243;-77
2021/10/11 06:20:55;;;;;;;28.57;12.13;;;;;;;;;;4919887;29;21215;-76
2021/10/11 06:23:22;;;;;;;28.83;12.73;;;;;;;;;;4930788;29;20658;-76
2021/10/11 06:25:49;;;;;;;29.07;12.40;;;;;;;;;;4929670;29;20304;-76
2021/10/11 06:28:19;;;;;;;24.90;11.50;;;;;;;;;;4930401;29;20280;-76
2021/10/11 06:30:47;;;;;;;24.17;12.77;;;;;;;;;;4927004;29;20231;-76
2021/10/11 06:33:15;;;;;;;22.23;11.73;;;;;;;;;;4932215;29;20230;-76
2021/10/11 06:35:42;;;;;;;24.40;11.90;;;;;;;;;;4932451;29;20669;-76
2021/10/11 06:38:09;;;;;;;27.90;12.60;;;;;;;;;;4918144;29;20254;-76
2021/10/11 06:40:36;;;;;;;25.60;11.60;;;;;;;;;;4917948;29;20346;-76
2021/10/11 06:43:04;;;;;;;23.53;12.33;;;;;;;;;;4918711;29;20338;-76
2021/10/11 06:45:32;;;;;;;25.77;11.97;;;;;;;;;;4911765;29;20199;-76
2021/10/11 06:48:00;;;;;;;20.37;11.20;;;;;;;;;;4919385;29;20388;-76
2021/10/11 06:50:28;;;;;;;23.60;12.80;;;;;;;;;;4916936;29;20801;-78
2021/10/11 06:52:55;;;;;;;28.93;13.17;;;;;;;;;;4915121;29;20302;-78
2021/10/11 06:55:22;;;;;;;24.80;12.80;;;;;;;;;;4922773;29;20315;-78
2021/10/11 06:57:49;;;;;;;21.63;12.30;;;;;;;;;;4928893;29;20744;-78
2021/10/11 07:00:17;;;;;;;22.37;12.23;;;;;;;;;;4929339;29;20227;-76
2021/10/11 07:02:44;;;;;;;24.70;12.30;;;;;;;;;;4921314;29;20290;-78
2021/10/11 07:05:15;;;;;;;31.20;12.70;;;;;;;;;;4912075;29;20204;-78
2021/10/11 07:07:42;;;;;;;24.83;12.43;;;;;;;;;;4931302;29;20231;-77
2021/10/11 07:10:10;;;;;;;29.57;13.93;;;;;;;;;;4929821;29;20238;-77
2021/10/11 07:12:38;;;;;;;28.63;14.47;;;;;;;;;;4931653;29;20294;-77
2021/10/11 07:15:06;;;;;;;32.23;15.07;;;;;;;;;;4931507;29;20273;-77
2021/10/11 07:17:33;;;;;;;25.37;12.93;;;;;;;;;;4932489;29;20219;-77
2021/10/11 07:20:00;;;;;;;25.87;13.40;;;;;;;;;;4931891;29;20253;-78
2021/10/11 07:22:29;;;;;;;27.37;13.50;;;;;;;;;;4924164;29;20243;-78
2021/10/11 07:24:56;;;;;;;25.20;12.90;;;;;;;;;;4927390;29;20290;-78
2021/10/11 07:27:23;;;;;;;32.80;14.67;;;;;;;;;;4926907;29;20669;-78
2021/10/11 07:29:50;;;;;;;29.80;14.60;;;;;;;;;;4931652;29;20231;-78
2021/10/11 07:32:18;;;;;;;31.60;14.53;;;;;;;;;;4931517;29;20246;-78
2021/10/11 07:34:45;;;;;;;31.87;14.27;;;;;;;;;;4931066;29;20310;-78
2021/10/11 07:39:42;;;;;;;31.57;14.27;;;;;;;;;;4950224;28;20699;-76
2021/10/11 07:42:09;;;;;;;28.87;14.47;;;;;;;;;;4948329;28;20711;-77
2021/10/11 07:44:36;;;;;;;27.83;14.10;;;;;;;;;;4954340;28;20253;-76
2021/10/11 07:47:04;;;;;;;26.33;13.57;;;;;;;;;;4954589;28;20210;-75
2021/10/11 07:49:32;;;;;;;28.13;14.27;;;;;;;;;;4950718;28;20221;-77
2021/10/11 07:51:59;;;;;;;32.43;13.60;;;;;;;;;;4947542;28;20455;-78
2021/10/11 07:54:26;;;;;;;32.00;14.30;;;;;;;;;;4944405;28;20589;-78
2021/10/11 07:56:55;;;;;;;32.17;14.63;;;;;;;;;;4949045;28;20289;-78
2021/10/11 07:59:22;;;;;;;28.60;14.73;;;;;;;;;;4944457;28;20280;-78
2021/10/11 08:01:49;;;;;;;30.33;15.67;;;;;;;;;;4948026;28;20375;-78
2021/10/11 08:04:16;;;;;;;28.87;14.60;;;;;;;;;;4948260;28;20636;-78
2021/10/11 08:06:43;;;;;;;31.93;16.03;;;;;;;;;;4950425;28;20262;-78
2021/10/11 08:09:11;;;;;;;30.33;16.43;;;;;;;;;;4948612;28;20957;-78
2021/10/11 08:11:40;;;;;;;37.00;16.97;;;;;;;;;;4936589;28;20227;-78
2021/10/11 08:14:09;;;;;;;33.07;15.77;;;;;;;;;;4946660;28;20751;-78
2021/10/11 08:16:38;;;;;;;35.63;16.90;;;;;;;;;;4944272;28;20325;-78
2021/10/11 08:19:05;;;;;;;35.67;16.90;;;;;;;;;;4949542;28;20681;-78
2021/10/11 08:21:32;;;;;;;34.50;16.73;;;;;;;;;;4940691;28;20298;-78
2021/10/11 08:23:59;;;;;;;36.60;18.13;;;;;;;;;;4947502;28;20564;-78
2021/10/11 08:26:27;;;;;;;34.60;17.73;;;;;;;;;;4948534;28;20333;-78
2021/10/11 08:28:54;;;;;;;40.67;19.10;;;;;;;;;;4951441;28;20207;-78
2021/10/11 08:31:23;;;;;;;36.17;18.30;;;;;;;;;;4951384;28;20250;-78
2021/10/11 08:33:50;;;;;;;22.37;12.07;;;;;;;;;;4950781;28;20246;-78
2021/10/11 08:36:17;;;;;;;40.10;19.13;;;;;;;;;;4944520;28;20380;-78
2021/10/11 08:38:45;;;;;;;43.27;20.03;;;;;;;;;;4945879;28;20305;-78
2021/10/11 08:41:12;;;;;;;42.23;19.50;;;;;;;;;;4947000;28;20724;-78
2021/10/11 08:43:41;;;;;;;39.43;19.43;;;;;;;;;;4947201;28;20628;-78
2021/10/11 08:46:08;;;;;;;31.67;16.27;;;;;;;;;;4944796;28;20198;-78
2021/10/11 08:48:37;;;;;;;37.43;18.53;;;;;;;;;;4946268;28;20252;-78
2021/10/11 08:51:05;;;;;;;39.10;18.47;;;;;;;;;;4944978;28;20226;-78
2021/10/11 08:53:33;;;;;;;43.97;18.63;;;;;;;;;;4944892;28;20291;-78
2021/10/11 08:56:00;;;;;;;34.87;17.20;;;;;;;;;;4946498;28;20237;-78
2021/10/11 08:58:27;;;;;;;37.10;17.63;;;;;;;;;;4946988;28;20309;-78
2021/10/11 09:01:05;;;;;;;34.90;16.80;;;;;;;;;;4946879;28;20241;-79
2021/10/11 09:03:32;;;;;;;31.57;15.93;;;;;;;;;;4939362;28;21259;-78
2021/10/11 09:06:06;;;;;;;32.80;16.77;;;;;;;;;;4948426;28;20265;-79
2021/10/11 09:08:34;;;;;;;28.57;15.43;;;;;;;;;;4948316;28;20197;-79
2021/10/11 09:11:03;;;;;;;32.90;16.30;;;;;;;;;;4947528;28;20272;-78
2021/10/11 09:13:31;;;;;;;31.37;15.77;;;;;;;;;;4940974;28;20241;-78
2021/10/11 09:16:05;;;;;;;33.20;17.03;;;;;;;;;;4947717;28;20277;-79
2021/10/11 09:18:33;;;;;;;34.40;15.43;;;;;;;;;;4945650;28;20203;-79
2021/10/11 09:21:01;;;;;;;31.73;15.23;;;;;;;;;;4938195;28;20222;-76
2021/10/11 09:23:30;;;;;;;33.87;16.77;;;;;;;;;;4938619;28;20207;-79
2021/10/11 09:25:58;;;;;;;37.67;16.37;;;;;;;;;;4944787;28;20524;-77
2021/10/11 09:28:27;;;;;;;35.23;16.80;;;;;;;;;;4941471;28;20290;-83
2021/10/11 09:30:54;;;;;;;31.27;15.77;;;;;;;;;;4948182;28;20230;-77
2021/10/11 09:33:23;;;;;;;28.70;15.37;;;;;;;;;;4944455;28;20234;-77
2021/10/11 09:35:51;;;;;;;29.37;14.17;;;;;;;;;;4943958;28;20222;-78
2021/10/11 09:38:22;;;;;;;23.63;12.03;;;;;;;;;;4943759;28;20305;-78
2021/10/11 09:40:51;;;;;;;26.93;14.03;;;;;;;;;;4948456;28;20273;-78
2021/10/11 09:43:19;;;;;;;21.57;10.70;;;;;;;;;;4943932;28;20299;-78
2021/10/11 09:45:46;;;;;;;22.33;11.27;;;;;;;;;;4940801;28;20214;-78
2021/10/11 09:48:13;;;;;;;25.73;13.30;;;;;;;;;;4944004;28;20241;-78
2021/10/11 09:50:41;;;;;;;25.20;13.73;;;;;;;;;;4941381;28;20268;-78
2021/10/11 09:53:11;;;;;;;21.87;11.93;;;;;;;;;;4948394;28;20241;-78
2021/10/11 09:55:41;;;;;;;31.43;13.73;;;;;;;;;;4945627;28;20745;-78
2021/10/11 09:58:10;;;;;;;27.47;13.23;;;;;;;;;;4948151;28;20206;-78
2021/10/11 10:00:38;;;;;;;23.73;12.10;;;;;;;;;;4940424;28;20731;-78
2021/10/11 10:03:05;;;;;;;22.30;12.27;;;;;;;;;;4946096;28;20293;-78
2021/10/11 10:05:35;;;;;;;29.00;11.93;;;;;;;;;;4946843;28;20203;-78
2021/10/11 10:08:04;;;;;;;25.20;10.67;;;;;;;;;;4947072;28;20241;-77
2021/10/11 10:10:32;;;;;;;28.20;13.23;;;;;;;;;;4947989;28;20324;-77
2021/10/11 10:13:02;;;;;;;21.23;10.73;;;;;;;;;;4947069;28;20206;-78
2021/10/11 10:15:32;;;;;;;22.47;11.87;;;;;;;;;;4947340;28;20308;-77
2021/10/11 10:18:03;;;;;;;23.00;11.60;;;;;;;;;;4947408;28;20219;-77
2021/10/11 10:20:31;;;;;;;25.17;11.83;;;;;;;;;;4945034;28;20309;-78
2021/10/11 10:22:58;;;;;;;21.80;9.90;;;;;;;;;;4946971;28;20253;-79
2021/10/11 10:25:26;;;;;;;19.10;9.30;;;;;;;;;;4949717;28;20234;-78
2021/10/11 10:27:55;;;;;;;23.93;9.30;;;;;;;;;;4950105;28;20232;-78
2021/10/11 10:30:23;;;;;;;19.10;9.67;;;;;;;;;;4951206;28;20318;-78
2021/10/11 10:32:55;;;;;;;20.07;8.67;;;;;;;;;;4950920;28;20238;-77
2021/10/11 10:35:26;;;;;;;17.33;9.17;;;;;;;;;;4937308;28;20301;-77
2021/10/11 10:37:53;;;;;;;19.90;9.43;;;;;;;;;;4931298;28;20215;-77
2021/10/11 10:40:22;;;;;;;18.80;9.17;;;;;;;;;;4949317;28;20308;-77
2021/10/11 10:42:49;;;;;;;19.67;9.10;;;;;;;;;;4949191;28;20202;-77
2021/10/11 10:45:20;;;;;;;17.33;8.47;;;;;;;;;;4953463;28;20241;-75
2021/10/11 10:47:48;;;;;;;20.50;9.30;;;;;;;;;;4955385;28;20225;-77
2021/10/11 10:50:19;;;;;;;14.33;7.13;;;;;;;;;;4950197;28;21660;-77
2021/10/11 10:52:47;;;;;;;14.53;7.33;;;;;;;;;;4949055;28;20229;-76
2021/10/11 10:55:15;;;;;;;17.87;7.70;;;;;;;;;;4938061;28;20586;-75
2021/10/11 10:57:42;;;;;;;16.83;8.30;;;;;;;;;;4950535;28;20245;-75
2021/10/11 11:00:13;;;;;;;15.03;7.13;;;;;;;;;;4950432;28;20309;-77
2021/10/11 11:02:45;;;;;;;18.93;7.40;;;;;;;;;;4948746;28;20222;-77
2021/10/11 11:05:13;;;;;;;17.70;8.43;;;;;;;;;;4949924;28;20552;-75
2021/10/11 11:07:42;;;;;;;14.70;7.03;;;;;;;;;;4949800;28;20252;-77
2021/10/11 11:10:12;;;;;;;19.90;9.33;;;;;;;;;;4950855;28;20341;-75
2021/10/11 11:12:40;;;;;;;24.50;9.47;;;;;;;;;;4947634;28;20210;-77
2021/10/11 11:15:09;;;;;;;22.03;10.30;;;;;;;;;;4949533;28;20233;-75
2021/10/11 11:17:37;;;;;;;14.87;7.63;;;;;;;;;;4945762;28;20724;-77
2021/10/11 11:20:11;;;;;;;18.90;9.03;;;;;;;;;;4948085;28;20311;-76
2021/10/11 11:22:38;;;;;;;23.50;9.93;;;;;;;;;;4945414;28;20242;-77
2021/10/11 11:25:07;;;;;;;16.57;8.20;;;;;;;;;;4950724;28;20293;-77
2021/10/11 11:27:36;;;;;;;17.70;8.60;;;;;;;;;;4947741;28;20305;-76
2021/10/11 11:30:04;;;;;;;20.97;9.27;;;;;;;;;;4949892;28;20312;-76
2021/10/11 11:32:31;;;;;;;16.67;7.97;;;;;;;;;;4947086;28;20301;-74
2021/10/11 11:34:59;;;;;;;23.23;9.00;;;;;;;;;;4950118;28;20294;-76
2021/10/11 11:37:27;;;;;;;15.43;7.93;;;;;;;;;;4948249;28;20261;-75
2021/10/11 11:39:54;;;;;;;14.03;7.43;;;;;;;;;;4947315;28;20325;-74
2021/10/11 11:42:31;;;;;;;23.13;9.63;;;;;;;;;;4944831;28;20305;-76
2021/10/11 11:44:58;;;;;;;20.97;9.17;;;;;;;;;;4947342;28;20752;-76
2021/10/11 11:47:29;;;;;;;22.37;8.57;;;;;;;;;;4946244;28;20213;-76
2021/10/11 11:49:56;;;;;;;22.80;9.03;;;;;;;;;;4947383;28;20694;-76
2021/10/11 11:52:31;;;;;;;23.00;10.43;;;;;;;;;;4945652;28;20768;-75
2021/10/11 11:54:58;;;;;;;22.20;9.37;;;;;;;;;;4939020;28;20326;-76
2021/10/11 11:57:26;;;;;;;20.07;8.43;;;;;;;;;;4948368;28;20772;-76
2021/10/11 11:59:54;;;;;;;18.37;9.00;;;;;;;;;;4949648;28;20329;-76
2021/10/11 12:02:23;;;;;;;18.60;8.23;;;;;;;;;;4938576;28;20236;-76
2021/10/11 12:04:50;;;;;;;22.00;9.30;;;;;;;;;;4947778;28;20209;-76
2021/10/11 12:07:21;;;;;;;22.50;9.67;;;;;;;;;;4947235;28;20211;-76
2021/10/11 12:09:50;;;;;;;22.07;8.07;;;;;;;;;;4950150;28;20317;-76
2021/10/11 12:12:18;;;;;;;21.93;8.53;;;;;;;;;;4940906;28;20232;-76
2021/10/11 12:14:49;;;;;;;19.67;7.47;;;;;;;;;;4949252;28;20513;-74
2021/10/11 12:17:18;;;;;;;20.80;8.73;;;;;;;;;;4949096;28;20728;-76
2021/10/11 12:19:45;;;;;;;19.70;7.57;;;;;;;;;;4950445;28;20241;-74
2021/10/11 12:22:12;;;;;;;19.43;9.03;;;;;;;;;;4939265;28;20288;-76
2021/10/11 12:24:39;;;;;;;13.97;7.90;;;;;;;;;;4947856;28;20616;-74
2021/10/11 12:27:08;;;;;;;18.27;7.80;;;;;;;;;;4940827;28;20293;-76
2021/10/11 12:29:38;;;;;;;22.90;8.40;;;;;;;;;;4920664;28;20300;-75
2021/10/11 12:32:06;;;;;;;19.90;8.43;;;;;;;;;;4930604;28;20213;-77
2021/10/11 12:34:35;;;;;;;14.53;7.83;;;;;;;;;;4932646;28;20425;-76
2021/10/11 12:37:04;;;;;;;19.90;8.70;;;;;;;;;;4942080;28;20253;-76
2021/10/11 12:39:33;;;;;;;22.30;8.90;;;;;;;;;;4947563;28;20225;-76
2021/10/11 12:42:00;;;;;;;21.20;8.73;;;;;;;;;;4945948;28;20301;-76
2021/10/11 12:44:38;;;;;;;18.60;8.40;;;;;;;;;;4940431;28;20580;-76
2021/10/11 12:47:06;;;;;;;22.17;9.90;;;;;;;;;;4941813;28;20183;-78
2021/10/11 12:49:36;;;;;;;22.70;9.53;;;;;;;;;;4954740;28;20237;-78
2021/10/11 12:52:06;;;;;;;22.20;8.03;;;;;;;;;;4962856;28;20962;-79
2021/10/11 12:54:36;;;;;;;20.80;8.77;;;;;;;;;;4958397;28;20257;-78
2021/10/11 12:57:03;;;;;;;14.27;7.17;;;;;;;;;;4933931;28;20235;-78
2021/10/11 12:59:31;;;;;;;12.40;5.20;;;;;;;;;;4952380;28;20656;-78
2021/10/11 13:01:59;;;;;;;16.13;6.43;;;;;;;;;;4940716;28;20395;-77
2021/10/11 13:04:27;;;;;;;10.50;5.40;;;;;;;;;;4940306;29;20219;-77
2021/10/11 13:06:55;;;;;;;15.77;4.77;;;;;;;;;;4945812;28;20601;-78
2021/10/11 13:09:23;;;;;;;9.63;4.23;;;;;;;;;;4950555;28;20230;-78
2021/10/11 13:11:50;;;;;;;11.57;4.47;;;;;;;;;;4950422;28;20234;-79
2021/10/11 13:14:18;;;;;;;14.27;4.03;;;;;;;;;;4948990;28;20252;-77
2021/10/11 13:16:45;;;;;;;9.70;3.87;;;;;;;;;;4939463;28;21005;-78
2021/10/11 13:19:12;;;;;;;11.20;4.20;;;;;;;;;;4940360;28;20313;-78
2021/10/11 13:21:40;;;;;;;14.57;4.13;;;;;;;;;;4946251;28;20238;-78
2021/10/11 13:24:09;;;;;;;12.20;4.10;;;;;;;;;;4950402;28;20215;-78
2021/10/11 13:26:48;;;;;;;13.33;4.63;;;;;;;;;;4943257;28;20310;-79
2021/10/11 13:29:38;;;;;;;7.97;3.73;;;;;;;;;;4940418;28;20210;-79
2021/10/11 13:32:48;;;;;;;7.70;2.50;;;;;;;;;;4931807;28;20226;-78
2021/10/11 14:27:50;;;;;;;9.97;2.70;;;;;;;;;;4937058;28;20210;-76
2021/10/11 14:30:23;;;;;;;6.83;2.70;;;;;;;;;;4950822;28;20314;-75
2021/10/11 14:33:03;;;;;;;5.60;1.97;;;;;;;;;;4944551;28;20206;-76
2021/10/11 15:58:37;;;;;;;6.07;2.93;;;;;;;;;;4967024;28;20248;-76
2021/10/11 16:01:13;;;;;;;10.43;3.73;;;;;;;;;;4962581;28;20320;-76
2021/10/11 16:03:52;;;;;;;10.10;4.17;;;;;;;;;;4968148;28;20220;-76
2021/10/11 16:06:21;;;;;;;8.37;3.90;;;;;;;;;;4965952;28;20217;-76
2021/10/11 16:08:49;;;;;;;9.37;3.80;;;;;;;;;;4969452;28;20296;-76
2021/10/11 16:11:17;;;;;;;9.63;3.50;;;;;;;;;;4966179;28;20316;-76
2021/10/11 16:13:44;;;;;;;10.27;3.20;;;;;;;;;;4966908;28;20891;-76
2021/10/11 16:16:12;;;;;;;12.57;3.57;;;;;;;;;;4968453;28;20244;-76
2021/10/11 16:18:39;;;;;;;10.63;3.30;;;;;;;;;;4967141;28;20257;-76
2021/10/11 16:21:07;;;;;;;8.83;3.37;;;;;;;;;;4969052;28;20533;-77
2021/10/11 16:23:36;;;;;;;7.87;3.50;;;;;;;;;;4967165;28;20328;-76
2021/10/11 16:26:05;;;;;;;11.70;3.67;;;;;;;;;;4964588;28;20572;-76
2021/10/11 16:28:33;;;;;;;9.07;3.33;;;;;;;;;;4967885;28;20233;-76
2021/10/11 16:31:01;;;;;;;10.77;4.07;;;;;;;;;;4966933;28;20265;-76
2021/10/11 16:33:28;;;;;;;10.50;3.93;;;;;;;;;;4959846;28;20213;-77
2021/10/11 16:35:59;;;;;;;10.83;4.07;;;;;;;;;;4962470;28;20205;-78
2021/10/11 16:38:27;;;;;;;14.03;4.03;;;;;;;;;;4952857;28;20225;-77
2021/10/11 16:40:54;;;;;;;9.30;3.93;;;;;;;;;;4955341;28;20609;-78
2021/10/11 16:43:23;;;;;;;15.77;4.73;;;;;;;;;;4950862;28;20214;-77
2021/10/11 16:45:50;;;;;;;13.77;4.17;;;;;;;;;;4963048;28;20217;-77